createdAt,value
2022-08-17T00:02:26.600Z,7.07
2022-08-17T00:04:55.133Z,6.75
2022-08-17T00:07:23.241Z,6.50
2022-08-17T00:09:50.328Z,6.85
2022-08-17T00:12:43.317Z,7.10
2022-08-17T00:15:10.606Z,7.05
2022-08-17T00:17:38.679Z,7.43
2022-08-17T00:20:06.611Z,7.57
2022-08-17T00:22:37.008Z,6.90
2022-08-17T00:25:15.074Z,6.97
2022-08-17T00:27:42.339Z,7.15
2022-08-17T00:30:12.320Z,7.20
2022-08-17T00:33:15.641Z,7.63
2022-08-17T00:35:30.980Z,7.00
2022-08-17T00:37:57.795Z,7.30
2022-08-17T00:40:25.303Z,7.90
2022-08-17T00:42:53.412Z,7.35
2022-08-17T00:45:21.124Z,7.00
2022-08-17T00:47:49.453Z,7.43
2022-08-17T00:50:19.161Z,7.32
2022-08-17T00:52:55.876Z,7.68
2022-08-17T00:55:25.695Z,7.28
2022-08-17T00:57:58.847Z,7.13
2022-08-17T01:00:38.306Z,7.50
2022-08-17T01:03:21.389Z,7.25
2022-08-17T01:05:52.863Z,6.68
2022-08-17T01:08:25.822Z,7.43
2022-08-17T01:11:01.777Z,6.85
2022-08-17T01:13:40.728Z,7.60
2022-08-17T01:16:17.870Z,7.50
2022-08-17T01:18:54.377Z,7.20
2022-08-17T01:22:03.211Z,7.82
2022-08-17T01:24:31.083Z,7.43
2022-08-17T01:27:01.997Z,7.22
2022-08-17T01:29:31.669Z,7.10
2022-08-17T01:32:05.588Z,7.60
2022-08-17T01:34:43.817Z,7.53
2022-08-17T01:37:19.856Z,6.80
2022-08-17T01:40:05.727Z,7.28
2022-08-17T01:43:05.943Z,7.07
2022-08-17T01:45:43.094Z,7.75
2022-08-17T01:48:12.126Z,8.20
2022-08-17T01:50:43.819Z,7.60
2022-08-17T01:53:32.510Z,7.32
2022-08-17T01:56:08.527Z,8.07
2022-08-17T01:58:38.501Z,7.60
2022-08-17T02:01:07.270Z,7.28
2022-08-17T02:03:36.589Z,7.10
2022-08-17T02:06:27.260Z,7.10
2022-08-17T02:09:02.870Z,7.78
2022-08-17T02:11:34.325Z,7.90
2022-08-17T02:14:04.022Z,7.03
2022-08-17T02:16:37.137Z,8.05
2022-08-17T02:19:08.632Z,7.80
2022-08-17T02:21:38.040Z,7.03
2022-08-17T02:24:10.968Z,7.18
2022-08-17T02:26:38.143Z,7.57
2022-08-17T02:29:05.088Z,7.43
2022-08-17T02:31:32.105Z,7.97
2022-08-17T02:34:03.712Z,7.55
2022-08-17T02:36:32.121Z,7.65
2022-08-17T02:39:02.485Z,8.13
2022-08-17T02:41:29.730Z,7.57
2022-08-17T02:43:56.695Z,7.78
2022-08-17T02:46:23.528Z,8.25
2022-08-17T02:48:50.573Z,7.72
2022-08-17T02:51:17.600Z,8.18
2022-08-17T02:53:46.208Z,7.47
2022-08-17T02:56:13.634Z,8.32
2022-08-17T02:58:40.586Z,8.07
2022-08-17T03:01:10.193Z,7.82
2022-08-17T03:03:39.079Z,8.18
2022-08-17T03:06:07.622Z,7.85
2022-08-17T03:08:35.067Z,8.05
2022-08-17T03:11:02.329Z,8.27
2022-08-17T03:13:30.961Z,8.13
2022-08-17T03:15:58.043Z,8.20
2022-08-17T03:18:26.350Z,7.97
2022-08-17T03:20:56.941Z,7.93
2022-08-17T03:23:25.453Z,8.00
2022-08-17T03:25:54.441Z,7.53
2022-08-17T03:28:22.910Z,7.37
2022-08-17T03:30:51.224Z,7.77
2022-08-17T03:33:19.444Z,8.37
2022-08-17T03:35:49.529Z,7.72
2022-08-17T03:38:17.327Z,7.57
2022-08-17T03:40:56.819Z,8.90
2022-08-17T03:43:30.885Z,7.57
2022-08-17T03:46:34.126Z,8.65
2022-08-17T03:49:26.690Z,8.13
2022-08-17T03:52:14.535Z,7.30
2022-08-17T03:55:01.624Z,8.15
2022-08-17T03:57:29.186Z,8.47
2022-08-17T03:59:56.341Z,7.85
2022-08-17T04:02:30.528Z,8.43
2022-08-17T04:04:58.543Z,8.20
2022-08-17T04:07:30.180Z,9.50
2022-08-17T04:09:58.056Z,8.27
2022-08-17T04:12:30.725Z,7.60
2022-08-17T04:14:58.408Z,8.70
2022-08-17T04:17:28.754Z,9.70
2022-08-17T04:19:56.977Z,7.63
2022-08-17T04:22:31.882Z,7.93
2022-08-17T04:25:15.995Z,7.95
2022-08-17T04:27:42.859Z,7.22
2022-08-17T04:30:10.846Z,7.65
2022-08-17T04:33:06.030Z,7.57
2022-08-17T04:35:50.256Z,7.07
2022-08-17T04:38:22.402Z,6.55
2022-08-17T04:41:07.995Z,6.70
2022-08-17T04:43:36.995Z,5.93
2022-08-17T04:46:11.184Z,5.63
2022-08-17T04:48:43.269Z,5.70
2022-08-17T04:51:25.874Z,5.45
2022-08-17T04:53:58.119Z,5.50
2022-08-17T04:56:27.611Z,6.60
2022-08-17T04:58:59.462Z,5.90
2022-08-17T05:01:31.185Z,5.53
2022-08-17T05:04:32.956Z,5.90
2022-08-17T05:06:51.288Z,5.45
2022-08-17T05:09:18.654Z,5.65
2022-08-17T05:11:46.627Z,6.07
2022-08-17T05:14:14.280Z,5.32
2022-08-17T05:16:41.261Z,6.13
2022-08-17T05:19:08.285Z,5.72
2022-08-17T05:21:35.478Z,5.95
2022-08-17T05:24:03.698Z,6.30
2022-08-17T05:26:43.855Z,6.13
2022-08-17T05:29:10.659Z,5.95
2022-08-17T05:31:37.523Z,5.60
2022-08-17T05:34:04.305Z,5.75
2022-08-17T05:36:38.070Z,6.05
2022-08-17T05:39:16.545Z,5.57
2022-08-17T05:41:47.108Z,6.03
2022-08-17T05:44:14.444Z,6.15
2022-08-17T05:46:49.832Z,6.15
2022-08-17T05:49:25.653Z,6.05
2022-08-17T05:52:31.385Z,6.57
2022-08-17T05:55:37.860Z,6.22
2022-08-17T05:58:23.892Z,6.28
2022-08-17T06:01:21.213Z,6.57
2022-08-17T06:04:20.688Z,6.65
2022-08-17T06:07:06.665Z,6.82
2022-08-17T06:10:16.869Z,6.85
2022-08-17T06:13:27.510Z,7.43
2022-08-17T06:16:28.172Z,7.35
2022-08-17T06:19:22.937Z,6.93
2022-08-17T06:21:54.186Z,7.78
2022-08-17T06:24:51.336Z,8.23
2022-08-17T06:27:32.872Z,8.38
2022-08-17T06:30:20.549Z,7.82
2022-08-17T06:32:50.282Z,8.65
2022-08-17T06:35:34.086Z,7.90
2022-08-17T06:38:38.195Z,7.63
2022-08-17T06:41:55.673Z,8.18
2022-08-17T06:44:50.920Z,7.95
2022-08-17T06:47:47.441Z,7.85
2022-08-17T06:50:44.369Z,8.00
2022-08-17T06:53:42.891Z,9.02
2022-08-17T06:56:19.169Z,8.23
2022-08-17T06:58:46.715Z,8.00
2022-08-17T07:01:26.783Z,7.95
2022-08-17T07:04:11.862Z,8.88
2022-08-17T07:06:58.126Z,8.50
2022-08-17T07:09:35.493Z,9.23
2022-08-17T07:12:22.377Z,9.13
2022-08-17T07:15:04.400Z,9.13
2022-08-17T07:17:47.263Z,9.48
2022-08-17T07:20:23.059Z,9.50
2022-08-17T07:23:21.059Z,10.27
2022-08-17T07:25:49.629Z,9.80
2022-08-17T07:28:23.057Z,10.10
2022-08-17T07:30:55.091Z,9.82
2022-08-17T07:33:30.943Z,10.45
2022-08-17T07:35:59.316Z,10.13
2022-08-17T07:38:35.472Z,10.15
2022-08-17T07:41:08.430Z,10.68
2022-08-17T07:43:46.983Z,9.90
2022-08-17T07:46:52.634Z,9.63
2022-08-17T07:49:33.906Z,10.32
2022-08-17T07:52:51.034Z,10.30
2022-08-17T07:55:34.800Z,10.68
2022-08-17T07:58:01.990Z,10.30
2022-08-17T08:00:32.123Z,10.52
2022-08-17T08:03:27.188Z,10.98
2022-08-17T08:06:02.585Z,10.48
2022-08-17T08:08:42.689Z,10.40
2022-08-17T08:11:27.842Z,10.40
2022-08-17T08:13:54.749Z,9.75
2022-08-17T08:16:31.203Z,11.25
2022-08-17T08:19:02.145Z,10.50
2022-08-17T08:21:51.515Z,10.30
2022-08-17T08:24:32.311Z,11.60
2022-08-17T08:27:22.109Z,11.30
2022-08-17T08:30:08.721Z,10.98
2022-08-17T08:32:52.083Z,11.48
2022-08-17T08:35:34.240Z,11.73
2022-08-17T08:38:20.005Z,11.77
2022-08-17T08:41:04.992Z,10.70
2022-08-17T08:44:14.215Z,11.90
2022-08-17T08:47:02.933Z,11.60
2022-08-17T08:50:37.086Z,12.50
2022-08-17T08:53:26.431Z,12.05
2022-08-17T08:56:01.666Z,12.30
2022-08-17T08:59:15.624Z,12.32
2022-08-17T09:02:35.664Z,12.65
2022-08-17T09:05:49.275Z,12.40
2022-08-17T09:08:33.834Z,12.48
2022-08-17T09:11:22.924Z,13.23
2022-08-17T09:14:31.264Z,13.77
2022-08-17T09:17:21.371Z,13.18
2022-08-17T09:20:11.235Z,13.05
2022-08-17T09:22:51.222Z,13.18
2022-08-17T09:25:32.845Z,13.43
2022-08-17T09:28:19.147Z,13.63
2022-08-17T09:30:52.675Z,12.73
2022-08-17T09:33:27.180Z,12.82
2022-08-17T09:36:05.404Z,13.75
2022-08-17T09:38:43.957Z,12.80
2022-08-17T09:41:49.177Z,12.95
2022-08-17T09:44:47.074Z,12.95
2022-08-17T09:47:40.597Z,12.85
2022-08-17T09:50:20.256Z,13.30
2022-08-17T09:53:08.053Z,12.60
2022-08-17T09:56:03.108Z,12.85
2022-08-17T09:59:20.646Z,13.50
2022-08-17T10:02:25.403Z,12.73
2022-08-17T10:05:19.582Z,12.77
2022-08-17T10:08:09.383Z,12.45
2022-08-17T10:10:56.716Z,11.50
2022-08-17T10:13:53.422Z,12.15
2022-08-17T10:16:44.821Z,12.52
2022-08-17T10:19:38.948Z,12.95
2022-08-17T10:22:44.137Z,12.57
2022-08-17T10:25:53.500Z,12.82
2022-08-17T10:28:30.120Z,12.65
2022-08-17T10:31:33.125Z,12.18
2022-08-17T10:34:01.650Z,12.02
2022-08-17T10:37:11.933Z,11.18
2022-08-17T10:40:00.237Z,11.45
2022-08-17T10:42:51.720Z,11.20
2022-08-17T10:45:31.220Z,12.18
2022-08-17T10:48:16.735Z,12.25
2022-08-17T10:50:55.798Z,11.60
2022-08-17T10:53:31.882Z,12.68
2022-08-17T10:56:13.764Z,12.35
2022-08-17T10:59:00.566Z,12.13
2022-08-17T11:01:37.971Z,10.50
2022-08-17T11:04:37.919Z,11.43
2022-08-17T11:07:37.884Z,10.52
2022-08-17T11:10:33.505Z,12.63
2022-08-17T11:13:11.515Z,11.73
2022-08-17T11:16:09.129Z,12.13
2022-08-17T11:19:08.718Z,13.10
2022-08-17T11:21:52.704Z,13.50
2022-08-17T11:24:38.173Z,12.60
2022-08-17T11:27:16.256Z,14.48
2022-08-17T11:30:48.967Z,13.63
2022-08-17T11:33:49.574Z,15.23
2022-08-17T11:36:53.611Z,14.07
2022-08-17T11:39:48.080Z,14.63
2022-08-17T11:42:37.569Z,15.73
2022-08-17T11:45:35.048Z,15.98
2022-08-17T11:48:49.809Z,14.93
2022-08-17T11:51:33.780Z,15.07
2022-08-17T11:54:50.636Z,15.73
2022-08-17T11:57:33.748Z,15.60
2022-08-17T12:00:16.569Z,15.35
2022-08-17T12:02:49.682Z,15.90
2022-08-17T12:05:22.966Z,15.93
2022-08-17T12:08:23.299Z,15.40
2022-08-17T12:10:53.519Z,15.15
2022-08-17T12:13:30.546Z,15.40
2022-08-17T12:16:06.788Z,15.48
2022-08-17T12:18:39.594Z,14.40
2022-08-17T12:21:50.028Z,15.65
2022-08-17T12:24:33.972Z,14.98
2022-08-17T12:27:07.127Z,15.93
2022-08-17T12:29:42.801Z,14.80
2022-08-17T12:32:20.105Z,16.00
2022-08-17T12:34:50.807Z,14.80
2022-08-17T12:37:49.052Z,16.42
2022-08-17T12:43:27.740Z,16.58
2022-08-17T12:46:19.979Z,14.77
2022-08-17T12:48:58.837Z,16.17
2022-08-17T12:51:32.282Z,16.27
2022-08-17T12:54:02.498Z,16.52
2022-08-17T12:56:31.514Z,16.95
2022-08-17T12:58:58.544Z,17.17
2022-08-17T13:01:26.610Z,17.17
2022-08-17T13:04:01.950Z,18.77
2022-08-17T13:06:37.503Z,18.67
2022-08-17T13:09:35.609Z,18.65
2022-08-17T13:12:07.944Z,19.80
2022-08-17T13:14:35.371Z,19.45
2022-08-17T13:17:13.208Z,19.50
2022-08-17T13:19:53.128Z,19.80
2022-08-17T13:22:25.220Z,20.10
2022-08-17T13:25:00.855Z,20.05
2022-08-17T13:27:31.918Z,19.52
2022-08-17T13:30:07.558Z,20.48
2022-08-17T13:32:48.380Z,21.42
2022-08-17T13:35:42.828Z,20.35
2022-08-17T13:38:36.446Z,20.98
2022-08-17T13:41:07.649Z,21.10
2022-08-17T13:43:45.501Z,21.13
2022-08-17T13:46:22.896Z,22.38
2022-08-17T13:49:10.715Z,21.95
2022-08-17T13:51:46.503Z,21.92
2022-08-17T13:54:40.683Z,23.98
2022-08-17T13:57:25.651Z,24.25
2022-08-17T14:00:17.496Z,24.35
2022-08-17T14:02:44.379Z,24.50
2022-08-17T14:05:11.270Z,25.20
2022-08-17T14:07:40.755Z,22.25
2022-08-17T14:10:18.087Z,22.25
2022-08-17T14:12:45.917Z,20.92
2022-08-17T14:15:16.436Z,20.23
2022-08-17T14:17:43.390Z,20.17
2022-08-17T14:20:13.434Z,20.63
2022-08-17T14:22:48.234Z,21.35
2022-08-17T14:25:21.002Z,22.20
2022-08-17T14:27:53.135Z,22.75
2022-08-17T14:30:25.084Z,23.63
2022-08-17T14:32:58.800Z,23.83
2022-08-17T14:35:28.241Z,23.83
2022-08-17T14:37:56.394Z,24.88
2022-08-17T14:40:25.169Z,23.13
2022-08-17T14:42:55.951Z,24.05
2022-08-17T14:45:32.625Z,24.08
2022-08-17T14:48:04.563Z,21.92
2022-08-17T14:50:32.179Z,21.90
2022-08-17T14:53:04.455Z,22.42
2022-08-17T14:55:32.383Z,19.25
2022-08-17T14:58:04.089Z,20.30
2022-08-17T15:00:31.888Z,19.55
2022-08-17T15:03:00.826Z,19.02
2022-08-17T15:05:35.041Z,19.98
2022-08-17T15:08:07.063Z,18.33
2022-08-17T15:10:37.060Z,18.35
2022-08-17T15:13:21.738Z,18.13
2022-08-17T15:15:50.016Z,16.95
2022-08-17T15:18:17.657Z,18.00
2022-08-17T15:20:46.449Z,17.90
2022-08-17T15:23:15.736Z,17.05
2022-08-17T15:25:51.548Z,16.08
2022-08-17T15:28:22.847Z,14.52
2022-08-17T15:30:53.798Z,14.35
2022-08-17T15:33:31.618Z,13.73
2022-08-17T15:36:04.681Z,11.70
2022-08-17T15:38:34.007Z,11.88
2022-08-17T15:41:01.553Z,12.73
2022-08-17T15:43:33.906Z,11.23
2022-08-17T15:46:12.135Z,11.02
2022-08-17T15:48:43.396Z,12.38
2022-08-17T15:51:17.123Z,10.90
2022-08-17T15:53:51.375Z,11.68
2022-08-17T15:56:19.648Z,11.48
2022-08-17T15:58:50.375Z,12.85
2022-08-17T16:03:01.430Z,12.60
2022-08-17T16:04:14.900Z,12.50
2022-08-17T16:06:54.741Z,12.98
2022-08-17T16:09:21.547Z,12.32
2022-08-17T16:11:51.966Z,13.80
2022-08-17T16:14:22.589Z,13.30
2022-08-17T16:16:50.836Z,11.98
2022-08-17T16:19:19.929Z,9.52
2022-08-17T16:21:46.924Z,9.18
2022-08-17T16:24:14.893Z,9.35
2022-08-17T16:26:42.610Z,9.38
2022-08-17T16:29:09.842Z,8.82
2022-08-17T16:31:37.787Z,10.27
2022-08-17T16:34:17.205Z,9.18
2022-08-17T16:36:51.793Z,8.90
2022-08-17T16:39:29.005Z,8.23
2022-08-17T16:41:57.209Z,7.90
2022-08-17T16:44:27.511Z,7.45
2022-08-17T16:46:54.415Z,8.68
2022-08-17T16:49:35.749Z,7.97
2022-08-17T16:52:09.897Z,8.13
2022-08-17T16:54:43.750Z,9.23
2022-08-17T16:57:15.114Z,9.13
2022-08-17T16:59:47.834Z,8.75
2022-08-17T17:02:29.770Z,9.43
2022-08-17T17:05:09.136Z,8.77
2022-08-17T17:07:55.420Z,9.15
2022-08-17T17:10:50.024Z,10.77
2022-08-17T17:13:33.001Z,10.82
2022-08-17T17:16:36.835Z,10.10
2022-08-17T17:19:35.388Z,10.27
2022-08-17T17:22:11.050Z,9.70
2022-08-17T17:25:03.308Z,11.43
2022-08-17T17:27:55.067Z,11.50
2022-08-17T17:31:03.427Z,12.73
2022-08-17T17:33:50.695Z,12.23
2022-08-17T17:36:29.949Z,13.35
2022-08-17T17:39:05.471Z,13.00
2022-08-17T17:42:07.737Z,13.25
2022-08-17T17:44:42.683Z,12.68
2022-08-17T17:47:12.509Z,13.27
2022-08-17T17:49:45.100Z,12.65
2022-08-17T17:52:19.700Z,12.95
2022-08-17T17:55:06.339Z,13.05
2022-08-17T17:57:51.487Z,13.07
2022-08-17T18:00:27.962Z,13.00
2022-08-17T18:03:14.522Z,13.77
2022-08-17T18:06:21.436Z,13.43
2022-08-17T18:09:08.364Z,13.05
2022-08-17T18:12:25.414Z,12.95
2022-08-17T18:15:26.124Z,13.48
2022-08-17T18:18:14.209Z,14.68
2022-08-17T18:20:53.324Z,13.25
2022-08-17T18:23:28.049Z,13.38
2022-08-17T18:25:58.092Z,13.30
2022-08-17T18:28:34.749Z,12.82
2022-08-17T18:31:21.710Z,13.43
2022-08-17T18:33:52.811Z,14.43
2022-08-17T18:36:36.324Z,13.98
2022-08-17T18:39:26.285Z,13.18
2022-08-17T18:41:57.330Z,13.90
2022-08-17T18:44:32.735Z,13.98
2022-08-17T18:47:20.992Z,13.10
2022-08-17T18:50:25.608Z,13.38
2022-08-17T18:52:55.271Z,13.52
2022-08-17T18:55:27.770Z,13.68
2022-08-17T18:58:15.630Z,13.73
2022-08-17T19:00:46.065Z,13.13
2022-08-17T19:03:15.720Z,13.27
2022-08-17T19:05:52.133Z,12.82
2022-08-17T19:08:35.987Z,12.98
2022-08-17T19:11:10.052Z,12.55
2022-08-17T19:14:26.894Z,13.32
2022-08-17T19:17:09.805Z,13.30
2022-08-17T19:19:53.842Z,11.93
2022-08-17T19:22:43.802Z,13.60
2022-08-17T19:25:21.903Z,12.93
2022-08-17T19:28:21.917Z,15.50
2022-08-17T19:31:02.031Z,16.65
2022-08-17T19:33:31.396Z,19.92
2022-08-17T19:36:10.305Z,13.93
2022-08-17T19:38:49.868Z,13.45
2022-08-17T19:42:00.713Z,14.52
2022-08-17T19:45:03.081Z,15.13
2022-08-17T19:48:07.145Z,17.35
2022-08-17T19:50:48.571Z,14.38
2022-08-17T19:54:01.717Z,15.07
2022-08-17T19:56:40.887Z,14.18
2022-08-17T19:59:48.152Z,14.70
2022-08-17T20:02:35.721Z,14.05
2022-08-17T20:05:13.348Z,15.15
2022-08-17T20:07:56.749Z,16.52
2022-08-17T20:11:02.053Z,14.50
2022-08-17T20:13:42.818Z,15.15
2022-08-17T20:16:11.568Z,15.23
2022-08-17T20:19:01.627Z,15.38
2022-08-17T20:21:41.181Z,13.80
2022-08-17T20:24:29.628Z,14.32
2022-08-17T20:27:12.259Z,13.85
2022-08-17T20:30:15.531Z,14.40
2022-08-17T20:33:00.253Z,14.35
2022-08-17T20:35:36.446Z,19.95
2022-08-17T20:38:11.386Z,16.92
2022-08-17T20:41:04.338Z,21.75
2022-08-17T20:43:34.120Z,17.17
2022-08-17T20:46:51.390Z,19.45
2022-08-17T20:49:45.937Z,16.23
2022-08-17T20:52:45.756Z,14.98
2022-08-17T20:55:34.185Z,15.48
2022-08-17T20:58:16.043Z,15.93
2022-08-17T21:00:48.707Z,16.33
2022-08-17T21:03:24.116Z,15.27
2022-08-17T21:06:15.324Z,16.57
2022-08-17T21:08:53.294Z,16.10
2022-08-17T21:11:56.808Z,14.87
2022-08-17T21:14:38.400Z,16.13
2022-08-17T21:17:17.690Z,16.53
2022-08-17T21:20:11.535Z,16.27
2022-08-17T21:23:18.982Z,16.87
2022-08-17T21:26:06.309Z,16.47
2022-08-17T21:29:01.211Z,16.40
2022-08-17T21:32:01.261Z,17.07
2022-08-17T21:34:36.529Z,15.50
2022-08-17T21:37:22.347Z,15.87
2022-08-17T21:40:18.320Z,15.93
2022-08-17T21:42:53.941Z,14.80
2022-08-17T21:45:25.324Z,16.43
2022-08-17T21:48:20.082Z,16.67
2022-08-17T21:51:01.878Z,15.97
2022-08-17T21:53:39.936Z,16.47
2022-08-17T21:56:08.582Z,16.90
2022-08-17T21:58:40.333Z,17.27
2022-08-17T22:01:28.634Z,18.97
2022-08-17T22:04:06.558Z,18.50
2022-08-17T22:06:56.490Z,18.10
2022-08-17T22:09:34.321Z,18.63
2022-08-17T22:12:07.576Z,18.93
2022-08-17T22:14:53.065Z,18.87
2022-08-17T22:17:29.766Z,17.90
2022-08-17T22:20:00.594Z,18.70
2022-08-17T22:22:59.810Z,18.53
2022-08-17T22:25:29.624Z,18.83
2022-08-17T22:28:04.378Z,18.30
2022-08-17T22:31:01.613Z,18.20
2022-08-17T22:33:42.058Z,18.13
2022-08-17T22:36:34.822Z,18.47
2022-08-17T22:39:42.003Z,17.87
2022-08-17T22:42:15.307Z,16.93
2022-08-17T22:44:50.885Z,17.47
2022-08-17T22:47:18.826Z,16.63
2022-08-17T22:49:56.584Z,19.40
2022-08-17T22:52:58.371Z,17.50
2022-08-17T22:55:45.574Z,17.97
2022-08-17T22:58:38.199Z,18.70
2022-08-17T23:01:32.695Z,17.97
2022-08-17T23:04:05.748Z,18.17
2022-08-17T23:06:37.811Z,18.77
2022-08-17T23:09:06.993Z,19.57
2022-08-17T23:11:58.469Z,18.40
2022-08-17T23:14:31.672Z,20.00
2022-08-17T23:16:59.765Z,21.73
2022-08-17T23:19:28.401Z,21.33
2022-08-17T23:21:57.506Z,22.17
2022-08-17T23:24:43.483Z,22.90
2022-08-17T23:27:11.521Z,21.27
2022-08-17T23:29:41.333Z,20.27
2022-08-17T23:32:13.778Z,20.13
2022-08-17T23:34:43.687Z,20.70
2022-08-17T23:37:11.807Z,20.97
2022-08-17T23:39:39.557Z,20.30
2022-08-17T23:42:12.313Z,21.93
2022-08-17T23:44:43.524Z,22.83
2022-08-17T23:47:11.106Z,24.77
2022-08-17T23:49:38.857Z,27.83
2022-08-17T23:52:11.523Z,27.63
2022-08-17T23:54:46.649Z,27.73
2022-08-17T23:57:33.819Z,26.97
